createdAt,value
2022-08-24T00:01:08.681Z,1015.99
2022-08-24T00:06:05.008Z,1015.93
2022-08-24T00:11:05.349Z,1015.96
2022-08-24T00:16:03.546Z,1015.97
2022-08-24T00:21:02.756Z,1015.95
2022-08-24T00:26:01.914Z,1015.89
2022-08-24T00:31:01.102Z,1015.87
2022-08-24T00:36:02.323Z,1015.79
2022-08-24T00:41:00.591Z,1015.84
2022-08-24T00:45:58.860Z,1015.84
2022-08-24T00:50:58.098Z,1015.83
2022-08-24T00:55:57.434Z,1015.83
2022-08-24T01:00:56.727Z,1015.73
2022-08-24T01:05:54.898Z,1015.68
2022-08-24T01:10:55.108Z,1015.69
2022-08-24T01:15:54.340Z,1015.73
2022-08-24T01:20:53.577Z,1015.77
2022-08-24T01:25:52.791Z,1015.82
2022-08-24T01:30:53.112Z,1015.83
2022-08-24T01:35:52.422Z,1015.77
2022-08-24T01:40:50.805Z,1015.77
2022-08-24T01:45:50.963Z,1015.67
2022-08-24T01:50:49.114Z,1015.61
2022-08-24T01:55:48.250Z,1015.63
2022-08-24T02:00:46.578Z,1015.60
2022-08-24T02:05:48.920Z,1015.64
2022-08-24T02:10:52.945Z,1015.70
2022-08-24T02:15:48.646Z,1015.76
2022-08-24T02:20:44.827Z,1015.76
2022-08-24T02:25:43.499Z,1015.74
2022-08-24T02:30:43.889Z,1015.82
2022-08-24T02:35:45.992Z,1015.73
2022-08-24T02:40:43.054Z,1015.83
2022-08-24T02:45:41.545Z,1015.86
2022-08-24T02:50:41.468Z,1015.85
2022-08-24T02:55:38.392Z,1015.82
2022-08-24T03:00:39.601Z,1015.90
2022-08-24T03:05:39.739Z,1015.87
2022-08-24T03:10:37.927Z,1015.86
2022-08-24T03:15:36.161Z,1015.81
2022-08-24T03:20:36.373Z,1015.84
2022-08-24T03:25:34.556Z,1015.87
2022-08-24T03:30:34.762Z,1015.87
2022-08-24T03:35:32.924Z,1015.78
2022-08-24T03:40:33.098Z,1015.74
2022-08-24T03:45:32.381Z,1015.76
2022-08-24T03:50:32.551Z,1015.74
2022-08-24T03:55:29.686Z,1015.79
2022-08-24T04:00:29.019Z,1015.77
2022-08-24T04:05:28.000Z,1015.73
2022-08-24T04:10:28.216Z,1015.72
2022-08-24T04:15:26.360Z,1015.75
2022-08-24T04:20:25.574Z,1015.86
2022-08-24T04:25:28.729Z,1015.83
2022-08-24T04:30:24.135Z,1015.83
2022-08-24T04:35:24.326Z,1015.81
2022-08-24T04:40:23.600Z,1015.88
2022-08-24T04:45:22.811Z,1015.93
2022-08-24T04:50:21.988Z,1015.98
2022-08-24T04:55:20.184Z,1015.92
2022-08-24T05:00:19.387Z,1015.97
2022-08-24T05:05:18.603Z,1016.03
2022-08-24T05:10:17.780Z,1016.02
2022-08-24T05:15:17.025Z,1016.05
2022-08-24T05:20:16.249Z,1016.08
2022-08-24T05:25:14.419Z,1016.11
2022-08-24T05:30:14.704Z,1016.14
2022-08-24T05:35:15.038Z,1016.16
2022-08-24T05:40:13.401Z,1016.12
2022-08-24T05:45:14.570Z,1016.15
2022-08-24T05:50:11.885Z,1016.17
2022-08-24T05:55:11.204Z,1016.21
2022-08-24T06:00:10.535Z,1016.29
2022-08-24T06:05:10.846Z,1016.24
2022-08-24T06:10:34.820Z,1016.22
2022-08-24T06:15:08.379Z,1016.24
2022-08-24T06:20:08.504Z,1016.28
2022-08-24T06:25:06.809Z,1016.25
2022-08-24T06:30:07.121Z,1016.27
2022-08-24T06:35:07.446Z,1016.27
2022-08-24T06:40:04.694Z,1016.24
2022-08-24T06:45:03.929Z,1016.22
2022-08-24T06:50:03.085Z,1016.24
2022-08-24T06:55:03.242Z,1016.32
2022-08-24T07:00:01.431Z,1016.39
2022-08-24T07:05:00.605Z,1016.35
2022-08-24T07:09:59.727Z,1016.34
2022-08-24T07:14:59.991Z,1016.33
2022-08-24T07:19:59.321Z,1016.41
2022-08-24T07:24:57.604Z,1016.38
2022-08-24T07:30:23.174Z,1016.37
2022-08-24T07:34:58.303Z,1016.31
2022-08-24T07:39:55.460Z,1016.27
2022-08-24T07:44:55.561Z,1016.24
2022-08-24T07:49:53.882Z,1016.21
2022-08-24T07:54:53.201Z,1016.25
2022-08-24T07:59:52.512Z,1016.25
2022-08-24T08:04:51.765Z,1016.19
2022-08-24T08:09:50.074Z,1016.21
2022-08-24T08:14:51.368Z,1016.19
2022-08-24T08:19:49.611Z,1016.16
2022-08-24T08:24:49.924Z,1016.24
2022-08-24T08:29:48.205Z,1016.17
2022-08-24T08:34:49.482Z,1016.17
2022-08-24T08:39:49.944Z,1016.22
2022-08-24T08:44:48.081Z,1016.07
2022-08-24T08:49:46.181Z,1016.09
2022-08-24T08:54:44.516Z,1016.04
2022-08-24T08:59:44.137Z,1015.99
2022-08-24T09:04:43.010Z,1016.01
2022-08-24T09:09:42.228Z,1016.03
2022-08-24T09:14:42.436Z,1015.99
2022-08-24T09:19:40.630Z,1016.02
2022-08-24T09:24:38.843Z,1016.03
2022-08-24T09:29:40.069Z,1015.95
2022-08-24T09:34:37.368Z,1015.87
2022-08-24T09:39:37.535Z,1015.91
2022-08-24T09:44:37.722Z,1015.88
2022-08-24T09:49:35.894Z,1015.82
2022-08-24T09:54:36.097Z,1015.79
2022-08-24T09:59:35.291Z,1015.78
2022-08-24T10:04:35.604Z,1015.71
2022-08-24T10:09:32.662Z,1015.70
2022-08-24T10:14:31.843Z,1015.58
2022-08-24T10:19:31.023Z,1015.58
2022-08-24T10:24:31.203Z,1015.46
2022-08-24T10:29:30.353Z,1015.41
2022-08-24T10:34:28.530Z,1015.44
2022-08-24T10:39:28.693Z,1015.45
2022-08-24T10:44:28.882Z,1015.28
2022-08-24T10:49:27.332Z,1015.21
2022-08-24T10:54:26.302Z,1015.25
2022-08-24T10:59:25.469Z,1015.14
2022-08-24T11:04:24.687Z,1015.18
2022-08-24T11:09:24.847Z,1015.18
2022-08-24T11:14:23.046Z,1015.10
2022-08-24T11:19:21.228Z,1015.10
2022-08-24T11:24:23.394Z,1015.01
2022-08-24T11:29:21.558Z,1015.00
2022-08-24T11:34:19.721Z,1014.95
2022-08-24T11:39:17.903Z,1014.91
2022-08-24T11:44:17.112Z,1014.87
2022-08-24T11:49:17.335Z,1014.88
2022-08-24T11:54:16.549Z,1014.89
2022-08-24T11:59:14.776Z,1014.78
2022-08-24T12:04:15.092Z,1014.71
2022-08-24T12:09:13.393Z,1014.67
2022-08-24T12:14:13.713Z,1014.72
2022-08-24T12:19:13.005Z,1014.67
2022-08-24T12:24:11.282Z,1014.63
2022-08-24T12:29:11.591Z,1014.61
2022-08-24T12:34:09.914Z,1014.61
2022-08-24T12:39:09.202Z,1014.52
2022-08-24T12:44:09.501Z,1014.56
2022-08-24T12:49:08.849Z,1014.49
2022-08-24T12:54:06.985Z,1014.43
2022-08-24T12:59:06.352Z,1014.34
2022-08-24T13:04:05.525Z,1014.39
2022-08-24T13:09:04.678Z,1014.32
2022-08-24T13:14:04.020Z,1014.32
2022-08-24T13:19:04.167Z,1014.21
2022-08-24T13:24:02.454Z,1014.19
2022-08-24T13:29:02.723Z,1014.13
2022-08-24T13:34:00.996Z,1014.06
2022-08-24T13:39:01.322Z,1014.11
2022-08-24T13:43:59.613Z,1014.07
2022-08-24T13:48:59.903Z,1014.12
2022-08-24T13:53:59.196Z,1014.12
2022-08-24T13:58:58.492Z,1014.11
2022-08-24T14:03:56.755Z,1014.06
2022-08-24T14:08:56.101Z,1014.04
2022-08-24T14:13:55.457Z,1014.03
2022-08-24T14:18:55.517Z,1014.00
2022-08-24T14:23:55.760Z,1013.97
2022-08-24T14:28:52.870Z,1013.97
2022-08-24T14:33:52.198Z,1013.99
2022-08-24T14:38:55.391Z,1013.97
2022-08-24T14:43:50.499Z,1014.01
2022-08-24T14:48:49.821Z,1014.02
2022-08-24T14:53:49.981Z,1014.03
2022-08-24T14:58:48.297Z,1013.98
2022-08-24T15:03:47.626Z,1014.02
2022-08-24T15:08:46.979Z,1013.93
2022-08-24T15:13:46.252Z,1013.93
2022-08-24T15:18:45.436Z,1013.96
2022-08-24T15:23:44.626Z,1013.96
2022-08-24T15:28:55.408Z,1013.90
2022-08-24T15:33:43.089Z,1013.92
2022-08-24T15:38:43.257Z,1013.87
2022-08-24T15:43:41.456Z,1013.90
2022-08-24T15:48:42.621Z,1013.87
2022-08-24T15:53:40.784Z,1013.82
2022-08-24T15:58:38.964Z,1013.91
2022-08-24T16:03:39.142Z,1013.96
2022-08-24T16:08:40.427Z,1013.95
2022-08-24T16:13:37.595Z,1013.95
2022-08-24T16:18:35.785Z,1013.95
2022-08-24T16:23:34.957Z,1013.95
2022-08-24T16:28:34.195Z,1013.97
2022-08-24T16:33:33.354Z,1014.00
2022-08-24T16:38:34.551Z,1014.00
2022-08-24T16:43:31.722Z,1014.01
2022-08-24T16:48:31.931Z,1013.96
2022-08-24T16:53:30.118Z,1014.00
2022-08-24T16:58:31.358Z,1014.06
2022-08-24T17:03:28.594Z,1014.08
2022-08-24T17:08:27.810Z,1014.13
2022-08-24T17:13:48.474Z,1014.18
2022-08-24T17:18:28.274Z,1014.24
2022-08-24T17:23:26.409Z,1014.33
2022-08-24T17:28:24.610Z,1014.34
2022-08-24T17:33:22.856Z,1014.37
2022-08-24T17:38:23.101Z,1014.43
2022-08-24T17:43:22.344Z,1014.43
2022-08-24T17:48:22.579Z,1014.47
2022-08-24T17:53:20.760Z,1014.50
2022-08-24T17:58:19.948Z,1014.51
2022-08-24T18:03:20.141Z,1014.49
2022-08-24T18:08:20.321Z,1014.53
2022-08-24T18:13:18.595Z,1014.59
2022-08-24T18:18:17.790Z,1014.59
2022-08-24T18:23:17.489Z,1014.60
2022-08-24T18:28:16.272Z,1014.72
2022-08-24T18:33:13.443Z,1014.75
2022-08-24T18:38:15.638Z,1014.85
2022-08-24T18:43:12.859Z,1014.82
2022-08-24T18:48:13.220Z,1014.91
2022-08-24T18:53:11.231Z,1014.89
2022-08-24T18:58:11.427Z,1014.93
2022-08-24T19:03:09.811Z,1014.96
2022-08-24T19:08:11.957Z,1015.02
2022-08-24T19:13:08.226Z,1015.08
2022-08-24T19:18:07.570Z,1015.10
2022-08-24T19:23:07.768Z,1015.07
2022-08-24T19:28:06.990Z,1015.14
2022-08-24T19:33:05.993Z,1015.13
2022-08-24T19:38:05.354Z,1015.11
2022-08-24T19:43:03.752Z,1015.10
2022-08-24T19:48:03.005Z,1015.12
2022-08-24T19:53:02.246Z,1015.12
2022-08-24T19:58:03.279Z,1015.12
2022-08-24T20:03:00.509Z,1015.16
2022-08-24T20:07:59.797Z,1015.11
2022-08-24T20:13:00.078Z,1015.13
2022-08-24T20:17:59.315Z,1015.11
2022-08-24T20:22:58.502Z,1015.19
2022-08-24T20:28:18.514Z,1015.14
2022-08-24T20:32:57.991Z,1015.15
2022-08-24T20:37:56.449Z,1015.21
2022-08-24T20:42:56.514Z,1015.16
2022-08-24T20:47:54.723Z,1015.13
2022-08-24T20:52:53.875Z,1015.14
2022-08-24T20:57:53.171Z,1015.09
2022-08-24T21:02:51.362Z,1015.08
2022-08-24T21:07:51.721Z,1015.11
2022-08-24T21:12:49.928Z,1015.17
2022-08-24T21:17:49.082Z,1015.18
2022-08-24T21:22:48.233Z,1015.13
2022-08-24T21:27:47.395Z,1015.22
2022-08-24T21:32:46.549Z,1015.13
2022-08-24T21:37:45.716Z,1015.22
2022-08-24T21:42:46.010Z,1015.21
2022-08-24T21:47:44.303Z,1015.11
2022-08-24T21:52:43.671Z,1015.21
2022-08-24T21:57:43.770Z,1015.20
2022-08-24T22:02:42.214Z,1015.20
2022-08-24T22:07:41.397Z,1015.17
2022-08-24T22:12:41.534Z,1015.10
2022-08-24T22:17:41.667Z,1015.13
2022-08-24T22:22:39.019Z,1015.11
2022-08-24T22:27:39.161Z,1015.11
2022-08-24T22:32:38.541Z,1015.16
2022-08-24T22:37:37.864Z,1015.14
2022-08-24T22:42:36.829Z,1015.17
2022-08-24T22:47:37.132Z,1015.13
2022-08-24T22:52:34.419Z,1015.14
2022-08-24T22:57:34.592Z,1015.06
2022-08-24T23:02:32.740Z,1015.05
2022-08-24T23:07:31.888Z,1015.03
2022-08-24T23:12:31.259Z,1015.01
2022-08-24T23:17:31.437Z,1014.91
2022-08-24T23:22:30.528Z,1014.92
2022-08-24T23:27:37.653Z,1014.87
2022-08-24T23:32:28.018Z,1014.91
2022-08-24T23:37:27.352Z,1014.95
2022-08-24T23:42:26.721Z,1014.78
2022-08-24T23:47:26.830Z,1014.80
2022-08-24T23:52:28.187Z,1014.71
2022-08-24T23:57:26.437Z,1014.75
